Time;durP1;ratioP1;P1;durP2;ratioP2;P2;SDS_P1;SDS_P2;PMS_P1;PMS_P2;Temp;Humidity;BMP_temperature;BMP_pressure;BME280_temperature;BME280_humidity;BME280_pressure;Samples;Min_cycle;Max_cycle;Signal;HPM_P1;HPM_P2
2022/11/17 00:00:21;;;;;;;5.43;1.92;;;11.20;99.90;;;;;;4213441;28;20040;-77
2022/11/17 00:02:22;;;;;;;7.70;2.70;;;11.20;99.90;;;;;;4220448;28;20043;-78
2022/11/17 00:04:29;;;;;;;11.63;3.20;;;11.20;99.90;;;;;;4217485;28;20529;-79
2022/11/17 00:06:29;;;;;;;9.60;3.35;;;11.20;99.90;;;;;;4215902;28;20043;-78
2022/11/17 00:08:30;;;;;;;11.23;3.47;;;11.20;99.90;;;;;;4219594;28;20039;-76
2022/11/17 00:10:31;;;;;;;10.73;4.05;;;11.20;99.90;;;;;;4212975;28;20457;-78
2022/11/17 00:14:51;;;;;;;13.50;4.22;;;11.20;99.90;;;;;;4218356;28;20035;-76
2022/11/17 00:16:51;;;;;;;17.30;5.25;;;11.20;99.90;;;;;;4215202;28;20503;-76
2022/11/17 00:21:18;;;;;;;13.25;4.10;;;11.20;99.90;;;;;;4220434;28;20032;-77
2022/11/17 00:23:19;;;;;;;13.45;3.45;;;11.20;99.90;;;;;;4204407;28;20483;-73
2022/11/17 00:25:19;;;;;;;9.70;3.88;;;11.20;99.90;;;;;;4204397;28;20099;-76
2022/11/17 00:27:20;;;;;;;12.05;3.70;;;11.20;99.90;;;;;;4221465;28;20062;-76
2022/11/17 00:29:21;;;;;;;10.85;3.45;;;11.20;99.90;;;;;;4199599;28;20043;-75
2022/11/17 00:36:01;;;;;;;9.90;3.10;;;11.20;99.90;;;;;;4215202;28;20120;-76
2022/11/17 00:38:14;;;;;;;11.02;2.72;;;11.20;99.90;;;;;;4219951;28;20035;-77
2022/11/17 00:40:14;;;;;;;6.53;2.63;;;11.20;99.90;;;;;;4216777;28;20059;-75
2022/11/17 00:42:15;;;;;;;6.88;2.75;;;11.20;99.90;;;;;;4216154;28;20036;-76
2022/11/17 00:44:16;;;;;;;7.15;2.67;;;11.20;99.90;;;;;;4219401;28;20097;-76
2022/11/17 00:46:17;;;;;;;7.75;3.00;;;11.20;99.90;;;;;;4218541;28;20039;-76
2022/11/17 00:48:17;;;;;;;11.68;3.08;;;11.20;99.90;;;;;;4220465;28;20031;-75
2022/11/17 00:50:18;;;;;;;7.85;2.65;;;11.10;99.90;;;;;;4215585;28;20081;-77
2022/11/17 00:52:18;;;;;;;8.93;3.05;;;11.10;99.90;;;;;;4219555;28;20110;-76
2022/11/17 00:54:19;;;;;;;7.82;2.90;;;11.10;99.90;;;;;;4218605;28;20035;-71
2022/11/17 00:56:20;;;;;;;10.13;3.20;;;11.10;99.90;;;;;;4214586;28;20089;-76
2022/11/17 00:58:20;;;;;;;9.23;2.83;;;11.10;99.90;;;;;;4223508;28;20043;-78
2022/11/17 01:00:21;;;;;;;9.43;2.20;;;11.00;99.90;;;;;;4216809;28;20048;-78
2022/11/17 01:02:22;;;;;;;6.80;2.45;;;11.10;99.90;;;;;;4220189;28;20093;-79
2022/11/17 01:04:22;;;;;;;6.13;2.20;;;11.10;99.90;;;;;;4215116;28;20490;-78
2022/11/17 01:06:23;;;;;;;4.80;1.52;;;11.10;99.90;;;;;;4219371;28;20090;-78
2022/11/17 01:08:23;;;;;;;6.20;1.65;;;11.10;99.90;;;;;;4218941;28;20032;-79
2022/11/17 01:10:24;;;;;;;2.92;1.35;;;11.10;99.90;;;;;;4215386;28;21032;-81
2022/11/17 01:12:24;;;;;;;5.95;1.30;;;11.10;99.90;;;;;;4214759;28;20124;-78
2022/11/17 01:14:28;;;;;;;4.93;1.65;;;11.10;99.90;;;;;;4218863;28;20036;-78
2022/11/17 01:16:30;;;;;;;3.28;1.33;;;11.10;99.90;;;;;;4226267;28;20047;-78
2022/11/17 01:18:30;;;;;;;4.55;1.70;;;11.10;99.90;;;;;;4226114;28;20514;-78
2022/11/17 01:20:32;;;;;;;5.18;1.38;;;11.10;99.90;;;;;;4217839;28;20036;-77
2022/11/17 01:22:32;;;;;;;3.58;1.10;;;11.10;99.90;;;;;;4221787;28;20122;-79
2022/11/17 01:24:33;;;;;;;5.13;1.23;;;11.10;99.90;;;;;;4221142;28;20035;-77
2022/11/17 01:26:35;;;;;;;4.68;1.60;;;11.10;99.90;;;;;;4218040;28;20981;-76
2022/11/17 01:28:37;;;;;;;6.38;1.58;;;11.10;99.90;;;;;;4220555;28;20032;-77
2022/11/17 01:30:37;;;;;;;5.80;1.35;;;11.10;99.90;;;;;;4217162;28;20318;-77
2022/11/17 01:32:38;;;;;;;8.20;1.73;;;11.00;99.90;;;;;;4219373;27;20036;-77
2022/11/17 01:34:38;;;;;;;6.47;1.58;;;11.00;99.90;;;;;;4219682;27;20039;-76
2022/11/17 01:39:01;;;;;;;2.60;1.20;;;11.00;99.90;;;;;;4220888;28;20078;-78
2022/11/17 01:41:04;;;;;;;3.78;1.35;;;11.00;99.90;;;;;;4199439;28;20035;-82
2022/11/17 01:43:09;;;;;;;8.18;1.23;;;11.00;99.90;;;;;;4226474;28;20428;-77
2022/11/17 01:45:22;;;;;;;6.63;1.60;;;11.00;99.90;;;;;;4212577;28;20161;-78
2022/11/17 01:47:26;;;;;;;2.55;1.20;;;11.00;99.90;;;;;;4222867;28;20036;-79
2022/11/17 01:49:28;;;;;;;3.35;1.30;;;11.00;99.90;;;;;;4220180;28;20090;-76
2022/11/17 01:51:31;;;;;;;5.10;1.55;;;11.00;99.90;;;;;;4223862;28;20043;-77
2022/11/17 01:53:34;;;;;;;5.85;1.40;;;11.00;99.90;;;;;;4217266;28;20100;-78
2022/11/17 01:55:40;;;;;;;4.75;1.50;;;11.00;99.90;;;;;;4219588;28;20031;-77
2022/11/17 01:57:54;;;;;;;8.30;1.50;;;11.00;99.90;;;;;;4218787;28;20036;-78
2022/11/17 02:00:00;;;;;;;5.10;1.20;;;11.00;99.90;;;;;;4220725;28;20032;-78
2022/11/17 02:02:00;;;;;;;2.55;1.08;;;11.00;99.90;;;;;;4218305;28;20107;-78
2022/11/17 02:04:01;;;;;;;4.07;1.50;;;11.00;99.90;;;;;;4218872;28;20483;-78
2022/11/17 02:06:21;;;;;;;4.45;1.10;;;11.00;99.90;;;;;;4221635;28;20117;-78
2022/11/17 02:08:25;;;;;;;2.55;1.40;;;11.00;99.90;;;;;;4211804;28;20028;-76
2022/11/17 02:10:28;;;;;;;5.90;1.42;;;11.00;99.90;;;;;;4210843;28;20032;-76
2022/11/17 02:12:31;;;;;;;4.70;1.40;;;11.00;99.90;;;;;;4212556;28;20086;-77
2022/11/17 02:14:32;;;;;;;4.70;1.50;;;11.00;99.90;;;;;;4217244;28;20119;-77
2022/11/17 02:16:32;;;;;;;5.60;1.35;;;11.00;99.90;;;;;;4217049;28;20040;-75
2022/11/17 02:18:33;;;;;;;3.35;1.13;;;11.00;99.90;;;;;;4215732;28;20114;-75
2022/11/17 02:21:04;;;;;;;4.82;1.17;;;11.00;99.90;;;;;;4211434;28;20032;-73
2022/11/17 02:23:29;;;;;;;5.63;1.75;;;11.00;99.90;;;;;;4216176;28;20035;-74
2022/11/17 02:25:40;;;;;;;5.57;1.25;;;11.10;99.90;;;;;;4213420;28;20399;-75
2022/11/17 02:27:55;;;;;;;4.85;1.45;;;11.00;99.90;;;;;;4209371;28;20045;-73
2022/11/17 02:30:10;;;;;;;5.53;1.40;;;11.00;99.90;;;;;;4211882;28;20028;-73
2022/11/17 02:32:30;;;;;;;3.60;1.17;;;11.10;99.90;;;;;;4219727;28;20118;-74
2022/11/17 02:34:44;;;;;;;3.20;1.02;;;11.00;99.90;;;;;;4209957;28;20123;-75
2022/11/17 02:37:11;;;;;;;4.22;1.42;;;11.10;99.90;;;;;;4204393;28;20044;-74
2022/11/17 02:39:23;;;;;;;5.28;1.20;;;11.00;99.90;;;;;;4205343;28;20045;-73
2022/11/17 02:41:33;;;;;;;3.10;1.10;;;11.10;99.90;;;;;;4199286;28;20111;-74
2022/11/17 02:44:25;;;;;;;3.20;1.20;;;11.10;99.90;;;;;;4205350;28;20059;-74
2022/11/17 02:46:11;;;;;;;3.40;1.08;;;11.10;99.90;;;;;;4197980;28;20028;-74
2022/11/17 02:48:18;;;;;;;2.45;1.27;;;11.10;99.90;;;;;;4205081;28;20071;-74
2022/11/17 02:50:21;;;;;;;2.50;0.90;;;11.10;99.90;;;;;;4202760;28;20033;-73
2022/11/17 02:52:22;;;;;;;3.53;1.50;;;11.10;99.90;;;;;;4200790;28;20396;-74
2022/11/17 02:54:27;;;;;;;3.90;1.02;;;11.10;99.90;;;;;;4204128;28;20450;-74
2022/11/17 02:56:28;;;;;;;3.80;1.20;;;11.10;99.90;;;;;;4201262;28;20104;-75
2022/11/17 02:58:28;;;;;;;7.25;1.73;;;11.10;99.90;;;;;;4202314;28;20036;-74
2022/11/17 03:00:31;;;;;;;6.78;1.33;;;11.00;99.90;;;;;;4202603;28;20626;-73
2022/11/17 03:02:50;;;;;;;;;;;11.00;99.90;;;;;;4204538;28;20041;-74
2022/11/17 03:05:14;;;;;;;3.75;1.13;;;11.00;99.90;;;;;;4201104;28;19957;-75
2022/11/17 03:07:33;;;;;;;5.38;0.90;;;11.00;99.90;;;;;;4200295;28;20037;-77
2022/11/17 03:09:56;;;;;;;3.72;1.40;;;11.00;99.90;;;;;;4201411;28;20040;-74
2022/11/17 03:12:08;;;;;;;2.28;1.30;;;11.00;99.90;;;;;;4221200;28;20063;-74
2022/11/17 03:14:38;;;;;;;3.15;1.40;;;11.00;99.90;;;;;;4216986;28;20059;-74
2022/11/17 03:16:54;;;;;;;3.25;1.25;;;11.00;99.90;;;;;;4209204;28;20073;-74
2022/11/17 03:19:16;;;;;;;3.95;1.30;;;11.00;99.90;;;;;;4219236;28;20165;-74
2022/11/17 03:21:41;;;;;;;4.45;1.00;;;11.00;99.90;;;;;;4214916;28;20035;-75
2022/11/17 03:23:55;;;;;;;4.57;1.27;;;10.90;99.90;;;;;;4220123;28;20066;-75
2022/11/17 03:25:57;;;;;;;5.93;1.30;;;11.00;99.90;;;;;;4213164;28;20039;-76
2022/11/17 03:28:03;;;;;;;2.97;1.02;;;11.00;99.90;;;;;;4218113;28;20062;-74
2022/11/17 03:30:07;;;;;;;4.90;1.15;;;10.90;99.90;;;;;;4219335;28;20075;-74
2022/11/17 03:32:08;;;;;;;3.53;1.13;;;10.90;99.90;;;;;;4219612;28;20067;-74
2022/11/17 03:34:14;;;;;;;2.47;1.00;;;10.90;99.90;;;;;;4197951;28;20040;-75
2022/11/17 03:36:23;;;;;;;3.75;1.30;;;10.90;99.90;;;;;;4220133;28;20036;-75
2022/11/17 03:38:28;;;;;;;6.57;1.33;;;10.90;99.90;;;;;;4217433;28;20054;-76
2022/11/17 03:40:32;;;;;;;2.08;0.80;;;10.90;99.90;;;;;;4216710;28;20614;-74
2022/11/17 03:42:35;;;;;;;9.32;1.20;;;10.90;99.90;;;;;;4215843;28;20032;-77
2022/11/17 03:44:39;;;;;;;2.15;1.00;;;10.90;99.90;;;;;;4215749;28;20056;-75
2022/11/17 03:46:42;;;;;;;4.43;1.40;;;10.90;99.90;;;;;;4214727;28;20492;-78
2022/11/17 03:48:49;;;;;;;3.88;1.33;;;10.90;99.90;;;;;;4216246;28;20619;-79
2022/11/17 03:51:08;;;;;;;2.30;0.93;;;10.90;99.90;;;;;;4215887;28;20056;-77
2022/11/17 03:53:09;;;;;;;2.75;1.48;;;10.90;99.90;;;;;;4215234;28;20046;-78
2022/11/17 03:55:10;;;;;;;4.15;1.30;;;10.90;99.90;;;;;;4217659;28;20059;-76
2022/11/17 03:57:25;;;;;;;3.72;1.25;;;10.90;99.90;;;;;;4216110;28;20461;-78
2022/11/17 04:00:00;;;;;;;3.28;1.02;;;10.90;99.90;;;;;;4213687;28;20028;-78
2022/11/17 04:02:01;;;;;;;3.97;1.40;;;10.90;99.90;;;;;;4215503;28;20023;-77
2022/11/17 04:04:02;;;;;;;2.47;1.10;;;11.00;99.90;;;;;;4215069;28;20032;-78
2022/11/17 04:06:02;;;;;;;4.15;1.30;;;11.00;99.90;;;;;;4215524;28;20114;-77
2022/11/17 04:08:03;;;;;;;4.85;1.20;;;11.00;99.90;;;;;;4211257;28;20055;-78
2022/11/17 04:10:05;;;;;;;2.70;1.20;;;11.00;99.90;;;;;;4215644;28;20062;-79
2022/11/17 04:16:45;;;;;;;2.53;1.48;;;10.90;99.90;;;;;;4227244;28;20379;-78
2022/11/17 04:18:45;;;;;;;3.85;1.15;;;11.00;99.90;;;;;;4220265;28;20046;-78
2022/11/17 04:20:50;;;;;;;1.85;0.90;;;10.90;99.90;;;;;;4221693;28;20110;-77
2022/11/17 04:23:06;;;;;;;2.90;1.23;;;10.90;99.90;;;;;;4228218;28;20057;-74
2022/11/17 04:25:07;;;;;;;2.85;1.13;;;10.90;99.90;;;;;;4227057;28;20042;-77
2022/11/17 04:29:27;;;;;;;2.70;1.00;;;10.90;99.90;;;;;;4219279;28;20040;-77
2022/11/17 04:31:29;;;;;;;2.15;0.90;;;10.90;99.90;;;;;;4213808;28;20484;-79
2022/11/17 04:33:30;;;;;;;1.58;0.90;;;11.00;99.90;;;;;;4228356;28;20393;-78
2022/11/17 04:35:31;;;;;;;2.25;0.90;;;11.00;99.90;;;;;;4219758;28;20036;-77
2022/11/17 04:37:31;;;;;;;2.38;0.80;;;11.00;99.90;;;;;;4223956;28;20127;-76
2022/11/17 04:39:32;;;;;;;1.67;1.00;;;10.90;99.90;;;;;;4220326;28;20034;-78
2022/11/17 04:41:52;;;;;;;2.28;1.00;;;11.00;99.90;;;;;;4224422;28;20027;-78
2022/11/17 04:43:54;;;;;;;1.70;1.00;;;11.00;99.90;;;;;;4219166;28;20028;-76
2022/11/17 04:45:59;;;;;;;2.58;0.98;;;11.00;99.90;;;;;;4222131;28;20081;-77
2022/11/17 04:47:59;;;;;;;1.98;0.95;;;11.00;99.90;;;;;;4215986;28;20479;-78
2022/11/17 04:50:00;;;;;;;1.48;0.80;;;10.90;99.90;;;;;;4214853;28;20039;-77
2022/11/17 04:52:01;;;;;;;2.60;1.10;;;10.90;99.90;;;;;;4219794;28;20028;-78
2022/11/17 04:54:02;;;;;;;2.85;1.05;;;10.90;99.90;;;;;;4223124;28;20041;-76
2022/11/17 04:56:04;;;;;;;2.00;0.60;;;11.00;99.90;;;;;;4215736;28;20063;-76
2022/11/17 04:58:04;;;;;;;2.53;1.20;;;11.00;99.90;;;;;;4221294;28;20478;-77
2022/11/17 05:00:06;;;;;;;1.65;0.60;;;11.00;99.90;;;;;;4227482;28;20026;-75
2022/11/17 05:02:06;;;;;;;1.13;0.75;;;11.00;99.90;;;;;;4223645;28;20024;-76
2022/11/17 05:04:10;;;;;;;1.98;0.95;;;11.00;99.90;;;;;;4211258;28;20036;-77
2022/11/17 05:06:14;;;;;;;3.92;1.20;;;11.10;99.90;;;;;;4218148;28;20024;-76
2022/11/17 05:08:15;;;;;;;2.83;1.10;;;11.00;99.90;;;;;;4216150;28;20040;-77
2022/11/17 05:13:20;;;;;;;2.95;0.88;;;11.10;99.90;;;;;;4219519;28;20119;-77
2022/11/17 05:17:03;;;;;;;5.43;1.15;;;11.00;99.90;;;;;;4158104;28;20100;-76
2022/11/17 05:17:32;;;;;;;1.38;0.80;;;11.10;99.90;;;;;;4206676;28;20070;-76
2022/11/17 05:19:36;;;;;;;2.15;0.70;;;11.10;99.90;;;;;;4226651;28;20470;-76
2022/11/17 05:21:37;;;;;;;3.38;1.00;;;11.00;99.90;;;;;;4214771;28;20032;-75
2022/11/17 05:26:08;;;;;;;3.67;1.25;;;11.10;99.90;;;;;;4202401;28;20027;-74
2022/11/17 05:28:08;;;;;;;4.22;1.35;;;11.10;99.90;;;;;;4216784;28;20115;-75
2022/11/17 05:30:10;;;;;;;2.33;0.93;;;11.10;99.90;;;;;;4204353;28;20082;-75
2022/11/17 05:32:10;;;;;;;2.85;0.82;;;11.00;99.90;;;;;;4218940;28;20032;-75
2022/11/17 05:34:12;;;;;;;4.22;0.93;;;11.00;99.90;;;;;;4209267;28;20132;-75
2022/11/17 05:36:14;;;;;;;6.00;1.38;;;11.00;99.90;;;;;;4222442;28;20535;-75
2022/11/17 05:38:14;;;;;;;2.10;0.98;;;10.90;99.90;;;;;;4214757;28;20062;-75
2022/11/17 05:40:15;;;;;;;3.00;1.20;;;11.00;99.90;;;;;;4203170;28;20115;-76
2022/11/17 05:42:15;;;;;;;3.80;0.93;;;11.00;99.90;;;;;;4210929;28;20039;-77
2022/11/17 05:44:16;;;;;;;4.47;1.40;;;10.90;99.90;;;;;;4207516;28;20047;-73
2022/11/17 05:46:18;;;;;;;3.13;1.33;;;11.00;99.90;;;;;;4196605;28;20066;-76
2022/11/17 05:48:19;;;;;;;3.92;1.48;;;11.00;99.90;;;;;;4198703;28;20048;-78
2022/11/17 05:50:20;;;;;;;3.33;0.95;;;11.00;99.90;;;;;;4212785;28;20072;-76
2022/11/17 05:52:20;;;;;;;4.53;0.82;;;10.90;99.90;;;;;;4206660;28;20501;-76
2022/11/17 05:54:21;;;;;;;2.47;1.10;;;10.90;99.90;;;;;;4204269;28;20044;-76
2022/11/17 05:56:42;;;;;;;4.07;1.23;;;11.00;99.90;;;;;;4208791;28;20475;-73
2022/11/17 05:58:46;;;;;;;5.90;1.30;;;10.90;99.90;;;;;;4204946;28;20051;-75
2022/11/17 06:00:48;;;;;;;3.55;1.00;;;11.00;99.90;;;;;;4195379;28;20090;-75
2022/11/17 06:03:12;;;;;;;2.65;1.30;;;10.90;99.90;;;;;;4212765;28;20036;-75
2022/11/17 06:05:13;;;;;;;3.50;1.20;;;10.90;99.90;;;;;;4202374;28;20367;-72
2022/11/17 06:07:16;;;;;;;3.95;1.25;;;10.90;99.90;;;;;;4209596;28;20041;-77
2022/11/17 06:09:17;;;;;;;3.13;0.85;;;11.00;99.90;;;;;;4197415;28;20037;-77
2022/11/17 06:11:18;;;;;;;5.75;1.20;;;10.90;99.90;;;;;;4200834;28;20063;-77
2022/11/17 06:13:24;;;;;;;2.25;1.10;;;10.90;99.90;;;;;;4204746;28;20037;-76
2022/11/17 06:15:25;;;;;;;4.07;1.40;;;10.90;99.90;;;;;;4199189;28;20044;-76
2022/11/17 06:17:33;;;;;;;3.15;1.00;;;10.90;99.90;;;;;;4202338;28;20076;-75
2022/11/17 06:19:40;;;;;;;5.20;0.98;;;10.90;99.90;;;;;;4213458;28;20395;-77
2022/11/17 06:21:40;;;;;;;2.25;1.20;;;11.00;99.90;;;;;;4200292;28;20548;-77
2022/11/17 06:23:43;;;;;;;2.70;0.90;;;11.00;99.90;;;;;;4210188;28;20020;-74
2022/11/17 06:25:44;;;;;;;2.95;0.95;;;11.00;99.90;;;;;;4195594;28;20035;-75
2022/11/17 06:27:45;;;;;;;2.90;1.00;;;11.10;99.90;;;;;;4211635;28;20107;-74
2022/11/17 06:29:46;;;;;;;1.83;0.70;;;11.10;99.90;;;;;;4209548;28;20107;-75
2022/11/17 06:31:47;;;;;;;4.22;0.95;;;11.10;99.90;;;;;;4201257;28;20025;-74
2022/11/17 06:33:48;;;;;;;2.95;0.90;;;11.10;99.90;;;;;;4197277;28;20024;-74
2022/11/17 06:35:49;;;;;;;5.43;1.45;;;11.20;99.90;;;;;;4196473;28;20100;-74
2022/11/17 06:37:49;;;;;;;3.33;1.10;;;11.20;99.90;;;;;;4196746;28;20020;-77
2022/11/17 06:39:50;;;;;;;1.75;0.90;;;11.20;99.90;;;;;;4197135;28;20025;-77
2022/11/17 06:41:50;;;;;;;5.68;1.38;;;11.20;99.90;;;;;;4196298;28;20052;-76
2022/11/17 06:43:51;;;;;;;2.03;1.05;;;11.20;99.90;;;;;;4196954;28;20530;-76
2022/11/17 06:45:52;;;;;;;2.50;0.95;;;11.20;99.90;;;;;;4194828;28;20357;-76
2022/11/17 06:47:53;;;;;;;2.85;1.15;;;11.20;99.90;;;;;;4203923;28;20032;-77
2022/11/17 06:49:53;;;;;;;4.88;1.25;;;11.20;99.90;;;;;;4201139;28;20060;-75
2022/11/17 06:51:54;;;;;;;4.03;1.00;;;11.30;99.90;;;;;;4196749;28;20120;-76
2022/11/17 06:53:55;;;;;;;3.25;1.40;;;11.20;99.90;;;;;;4202461;28;20039;-76
2022/11/17 06:56:07;;;;;;;2.30;0.95;;;11.20;99.90;;;;;;4200356;28;20441;-80
2022/11/17 06:58:11;;;;;;;1.83;0.90;;;11.30;99.90;;;;;;4205383;28;20556;-80
2022/11/17 07:00:13;;;;;;;2.55;0.98;;;11.30;99.90;;;;;;4209089;28;20024;-79
2022/11/17 07:02:13;;;;;;;4.38;1.15;;;11.30;99.90;;;;;;4208335;28;20043;-77
2022/11/17 07:04:14;;;;;;;2.08;0.90;;;11.30;99.90;;;;;;4204489;28;20040;-78
2022/11/17 07:06:17;;;;;;;5.43;1.77;;;11.30;99.90;;;;;;4210558;28;20036;-78
2022/11/17 07:08:21;;;;;;;2.15;1.05;;;11.30;99.90;;;;;;4209748;28;20468;-79
2022/11/17 07:10:21;;;;;;;6.70;1.23;;;11.30;99.90;;;;;;4203578;28;20032;-77
2022/11/17 07:12:22;;;;;;;2.55;1.00;;;11.40;99.90;;;;;;4201667;28;20381;-79
2022/11/17 07:14:22;;;;;;;4.82;1.50;;;11.40;99.90;;;;;;4201064;28;20035;-78
2022/11/17 07:16:23;;;;;;;2.38;1.08;;;11.30;99.90;;;;;;4196587;28;20130;-73
2022/11/17 07:18:24;;;;;;;1.92;0.93;;;11.40;99.90;;;;;;4199576;28;20045;-77
2022/11/17 07:20:25;;;;;;;2.45;1.10;;;11.40;99.90;;;;;;4196455;28;20095;-78
2022/11/17 07:22:25;;;;;;;3.10;1.40;;;11.40;99.90;;;;;;4200598;28;20035;-81
2022/11/17 07:24:26;;;;;;;4.07;1.27;;;11.40;99.90;;;;;;4195343;28;20445;-78
2022/11/17 07:26:26;;;;;;;4.43;1.33;;;11.40;99.90;;;;;;4199457;28;20398;-79
2022/11/17 07:28:28;;;;;;;3.25;1.10;;;11.50;99.90;;;;;;4195597;28;20466;-79
2022/11/17 07:30:28;;;;;;;5.90;1.25;;;11.40;99.90;;;;;;4197458;28;20044;-80
2022/11/17 07:32:30;;;;;;;4.13;1.05;;;11.50;99.90;;;;;;4198874;28;20043;-79
2022/11/17 07:34:30;;;;;;;6.50;1.52;;;11.50;99.90;;;;;;4199574;28;20039;-78
2022/11/17 07:36:32;;;;;;;5.18;1.30;;;11.40;99.90;;;;;;4201874;28;20039;-78
2022/11/17 07:38:33;;;;;;;3.20;1.10;;;11.40;99.90;;;;;;4200046;28;20130;-78
2022/11/17 07:40:34;;;;;;;4.63;1.35;;;11.50;99.90;;;;;;4197104;28;20124;-78
2022/11/17 07:42:35;;;;;;;5.40;1.45;;;11.50;99.90;;;;;;4195607;28;20067;-78
2022/11/17 07:44:35;;;;;;;2.58;1.17;;;11.50;99.90;;;;;;4195088;28;20131;-78
2022/11/17 07:46:36;;;;;;;2.42;1.10;;;11.50;99.90;;;;;;4192848;28;20039;-78
2022/11/17 07:48:37;;;;;;;3.17;1.02;;;11.50;99.90;;;;;;4199702;28;20040;-78
2022/11/17 07:50:39;;;;;;;5.55;1.30;;;11.50;99.90;;;;;;4196632;28;20538;-82
2022/11/17 07:52:40;;;;;;;4.45;1.00;;;11.50;99.90;;;;;;4198636;28;20050;-78
2022/11/17 07:54:40;;;;;;;3.45;0.82;;;11.50;99.90;;;;;;4194190;28;20414;-78
2022/11/17 07:56:41;;;;;;;2.20;0.63;;;11.50;99.90;;;;;;4199851;28;20028;-77
2022/11/17 07:58:42;;;;;;;5.45;1.48;;;11.50;99.90;;;;;;4197484;28;20048;-78
2022/11/17 08:00:42;;;;;;;3.85;1.10;;;11.60;99.90;;;;;;4196632;28;20044;-78
2022/11/17 08:02:43;;;;;;;2.42;0.75;;;11.60;99.90;;;;;;4194545;28;20493;-78
2022/11/17 08:04:43;;;;;;;1.50;0.77;;;11.50;99.90;;;;;;4198459;28;20033;-76
2022/11/17 08:06:44;;;;;;;2.75;1.00;;;11.50;99.90;;;;;;4195477;28;20466;-78
2022/11/17 08:08:47;;;;;;;2.58;0.95;;;11.50;99.90;;;;;;4197022;28;20079;-77
2022/11/17 08:10:47;;;;;;;6.03;0.93;;;11.50;99.90;;;;;;4204000;28;20491;-77
2022/11/17 08:12:52;;;;;;;1.38;0.65;;;11.40;99.90;;;;;;4195934;28;20040;-76
2022/11/17 08:14:53;;;;;;;1.55;0.68;;;11.50;99.90;;;;;;4195980;28;20380;-77
2022/11/17 08:16:53;;;;;;;3.13;0.57;;;11.50;99.90;;;;;;4195011;28;20052;-72
2022/11/17 08:18:54;;;;;;;2.28;0.85;;;11.50;99.90;;;;;;4195918;28;20060;-76
2022/11/17 08:21:05;;;;;;;4.53;1.10;;;11.50;99.90;;;;;;4195047;28;20029;-76
2022/11/17 08:23:06;;;;;;;3.40;0.75;;;11.40;99.90;;;;;;4195635;28;20115;-78
2022/11/17 08:25:07;;;;;;;3.60;0.90;;;11.50;99.90;;;;;;4195740;28;20537;-77
2022/11/17 08:27:09;;;;;;;2.05;0.50;;;11.50;99.90;;;;;;4195621;28;20403;-76
2022/11/17 08:29:09;;;;;;;1.25;0.50;;;11.50;99.90;;;;;;4195887;28;20028;-77
2022/11/17 08:31:10;;;;;;;1.70;0.60;;;11.50;99.90;;;;;;4194840;28;20128;-76
2022/11/17 08:33:10;;;;;;;1.83;0.70;;;11.50;99.90;;;;;;4195805;28;20383;-76
2022/11/17 08:35:11;;;;;;;3.92;0.70;;;11.40;99.90;;;;;;4195091;28;20037;-76
2022/11/17 08:37:11;;;;;;;2.42;0.73;;;11.40;99.90;;;;;;4195910;28;20410;-76
2022/11/17 08:39:12;;;;;;;3.97;0.68;;;11.40;99.90;;;;;;4195495;28;20488;-77
2022/11/17 08:41:12;;;;;;;2.20;0.80;;;11.40;99.90;;;;;;4194698;28;20388;-77
2022/11/17 08:43:13;;;;;;;1.90;0.75;;;11.40;99.90;;;;;;4195164;28;20039;-76
2022/11/17 08:45:14;;;;;;;4.20;0.98;;;11.40;99.90;;;;;;4194153;28;20044;-76
2022/11/17 08:47:14;;;;;;;4.35;1.20;;;11.30;99.90;;;;;;4195071;28;20041;-76
2022/11/17 08:49:15;;;;;;;1.25;0.63;;;11.30;99.90;;;;;;4194652;28;20218;-76
2022/11/17 08:51:15;;;;;;;3.80;1.00;;;11.40;99.90;;;;;;4195065;28;20036;-76
2022/11/17 08:53:19;;;;;;;4.03;0.95;;;11.30;99.90;;;;;;4195813;28;20432;-75
2022/11/17 08:55:20;;;;;;;2.78;0.50;;;11.30;99.90;;;;;;4195095;28;20423;-76
2022/11/17 08:57:20;;;;;;;3.35;0.85;;;11.30;99.90;;;;;;4195744;28;20044;-75
2022/11/17 08:59:21;;;;;;;2.17;0.88;;;11.40;99.90;;;;;;4195419;28;20383;-75
2022/11/17 09:01:22;;;;;;;3.03;0.77;;;11.30;99.90;;;;;;4195075;28;20121;-76
2022/11/17 09:03:22;;;;;;;3.63;1.13;;;11.30;99.90;;;;;;4195592;28;20422;-75
2022/11/17 09:05:23;;;;;;;1.27;0.52;;;11.30;99.90;;;;;;4194844;28;20063;-76
2022/11/17 09:07:24;;;;;;;2.20;0.50;;;11.30;99.90;;;;;;4194833;28;20040;-69
2022/11/17 09:09:25;;;;;;;5.20;0.68;;;11.40;99.90;;;;;;4193912;28;20028;-74
2022/11/17 09:11:25;;;;;;;2.95;0.68;;;11.30;99.90;;;;;;4193654;28;20123;-73
2022/11/17 09:13:26;;;;;;;3.03;0.82;;;11.40;99.90;;;;;;4195247;28;20443;-73
2022/11/17 09:15:26;;;;;;;3.85;0.93;;;11.40;99.90;;;;;;4194742;28;20062;-72
2022/11/17 09:17:27;;;;;;;3.22;0.80;;;11.40;99.90;;;;;;4195797;28;20097;-74
2022/11/17 09:19:28;;;;;;;3.33;1.00;;;11.40;99.90;;;;;;4198342;28;20491;-74
2022/11/17 09:21:30;;;;;;;1.13;0.57;;;11.40;99.90;;;;;;4197896;28;20036;-73
2022/11/17 09:23:31;;;;;;;4.45;1.02;;;11.40;99.90;;;;;;4198405;28;20032;-75
2022/11/17 09:25:31;;;;;;;1.25;0.38;;;11.50;99.90;;;;;;4197709;28;20040;-74
2022/11/17 09:27:32;;;;;;;1.88;0.80;;;11.40;99.90;;;;;;4198175;28;20031;-74
2022/11/17 09:29:33;;;;;;;2.70;0.77;;;11.50;99.90;;;;;;4198315;28;20029;-74
2022/11/17 09:31:34;;;;;;;2.25;0.85;;;11.50;99.90;;;;;;4197722;28;20498;-74
2022/11/17 09:33:35;;;;;;;1.65;0.63;;;11.60;99.90;;;;;;4198509;28;20036;-75
2022/11/17 09:35:35;;;;;;;2.67;0.80;;;11.60;99.90;;;;;;4197716;28;20372;-75
2022/11/17 09:37:36;;;;;;;2.47;0.82;;;11.60;99.90;;;;;;4197998;28;20030;-74
2022/11/17 09:39:36;;;;;;;2.35;0.90;;;11.60;99.90;;;;;;4198102;28;20087;-75
2022/11/17 09:41:50;;;;;;;3.80;0.98;;;11.50;99.90;;;;;;4197664;28;20089;-75
2022/11/17 09:44:17;;;;;;;4.53;1.35;;;11.60;99.90;;;;;;4198286;28;20044;-74
2022/11/17 09:46:25;;;;;;;1.65;0.75;;;11.60;99.90;;;;;;4188189;28;20041;-78
2022/11/17 09:48:39;;;;;;;1.80;0.82;;;11.60;99.90;;;;;;4197133;28;20033;-72
2022/11/17 09:50:42;;;;;;;2.13;0.90;;;11.60;99.90;;;;;;4197040;28;20096;-74
2022/11/17 09:53:13;;;;;;;3.38;0.70;;;11.60;99.90;;;;;;4198034;28;20052;-75
2022/11/17 09:55:29;;;;;;;4.70;0.98;;;11.60;99.90;;;;;;4196497;28;20029;-75
2022/11/17 09:57:42;;;;;;;3.78;1.20;;;11.70;99.90;;;;;;4196007;28;20044;-75
2022/11/17 09:59:43;;;;;;;3.47;1.00;;;11.70;99.90;;;;;;4197783;28;20104;-73
2022/11/17 10:01:44;;;;;;;2.25;0.70;;;11.70;99.90;;;;;;4197156;28;20032;-74
2022/11/17 10:03:46;;;;;;;2.83;0.75;;;11.70;99.90;;;;;;4197925;28;20032;-73
2022/11/17 10:05:47;;;;;;;2.05;0.50;;;11.80;99.90;;;;;;4196583;28;20048;-73
2022/11/17 10:07:51;;;;;;;2.28;0.60;;;11.80;99.90;;;;;;4197824;28;20025;-73
2022/11/17 10:09:53;;;;;;;4.38;0.82;;;11.80;99.90;;;;;;4196336;28;20055;-76
2022/11/17 10:12:04;;;;;;;4.22;0.88;;;11.80;99.90;;;;;;4197179;28;20025;-74
2022/11/17 10:14:11;;;;;;;2.97;0.90;;;11.90;99.90;;;;;;4197354;28;20535;-73
2022/11/17 10:16:13;;;;;;;2.47;0.50;;;11.90;99.90;;;;;;4194956;28;20033;-74
2022/11/17 10:18:15;;;;;;;1.58;0.80;;;12.00;99.90;;;;;;4197494;28;20040;-73
2022/11/17 10:20:17;;;;;;;3.30;0.97;;;11.90;99.90;;;;;;4196887;28;20435;-75
2022/11/17 10:22:35;;;;;;;1.17;0.55;;;12.00;99.90;;;;;;4197409;28;20251;-73
2022/11/17 10:24:41;;;;;;;3.17;0.75;;;12.00;99.90;;;;;;4195803;28;20029;-74
2022/11/17 10:26:48;;;;;;;2.60;0.63;;;12.00;99.90;;;;;;4196527;28;20025;-72
2022/11/17 10:29:04;;;;;;;1.92;0.60;;;12.00;99.90;;;;;;4196735;28;20033;-73
2022/11/17 10:31:16;;;;;;;4.22;0.80;;;12.10;99.90;;;;;;4196250;28;20361;-74
2022/11/17 10:33:30;;;;;;;1.40;0.73;;;12.10;99.90;;;;;;4197223;28;20041;-74
2022/11/17 10:35:33;;;;;;;4.03;0.70;;;12.10;99.90;;;;;;4196004;28;20717;-72
2022/11/17 10:37:34;;;;;;;1.63;0.60;;;12.10;99.90;;;;;;4197084;28;20357;-73
2022/11/17 10:39:37;;;;;;;5.47;0.80;;;12.10;99.90;;;;;;4196992;28;20043;-72
2022/11/17 10:41:41;;;;;;;3.17;0.80;;;12.20;99.90;;;;;;4196377;28;20059;-73
2022/11/17 10:44:03;;;;;;;3.22;0.70;;;12.20;99.90;;;;;;4196937;28;20029;-72
2022/11/17 10:46:12;;;;;;;1.45;0.55;;;12.20;99.90;;;;;;4195519;28;20108;-72
2022/11/17 10:48:36;;;;;;;2.83;0.40;;;12.30;99.90;;;;;;4196326;28;20021;-72
2022/11/17 10:50:36;;;;;;;0.98;0.50;;;12.30;99.90;;;;;;4193606;28;20036;-72
2022/11/17 10:52:37;;;;;;;2.15;0.63;;;12.30;99.90;;;;;;4196768;28;20523;-72
2022/11/17 10:54:38;;;;;;;1.15;0.40;;;12.30;99.90;;;;;;4196699;28;20028;-71
2022/11/17 10:56:42;;;;;;;1.75;0.52;;;12.30;99.90;;;;;;4195998;28;20439;-73
2022/11/17 10:59:16;;;;;;;1.42;0.50;;;12.30;99.90;;;;;;4196572;28;20029;-72
2022/11/17 11:01:27;;;;;;;2.00;0.80;;;12.30;99.90;;;;;;4194110;28;20093;-72
2022/11/17 11:03:32;;;;;;;4.22;0.60;;;12.30;99.90;;;;;;4196185;28;20028;-71
2022/11/17 11:05:33;;;;;;;2.80;0.90;;;12.30;99.90;;;;;;4196039;28;20036;-72
2022/11/17 11:07:34;;;;;;;8.32;0.80;;;12.30;99.90;;;;;;4196499;28;20047;-72
2022/11/17 11:09:46;;;;;;;2.42;0.70;;;12.30;99.90;;;;;;4196622;28;20037;-72